createdAt,value
2023-07-21T00:02:16.051Z,99.90
2023-07-21T00:04:42.684Z,99.90
2023-07-21T00:07:09.449Z,99.90
2023-07-21T00:09:36.056Z,99.90
2023-07-21T00:12:03.064Z,99.90
2023-07-21T00:14:29.924Z,99.90
2023-07-21T00:16:56.699Z,99.90
2023-07-21T00:19:23.310Z,99.90
2023-07-21T00:21:50.798Z,99.90
2023-07-21T00:24:19.822Z,99.90
2023-07-21T00:26:47.480Z,99.90
2023-07-21T00:29:14.193Z,99.90
2023-07-21T00:31:43.924Z,99.90
2023-07-21T00:34:10.828Z,99.90
2023-07-21T00:36:37.488Z,99.90
2023-07-21T00:39:04.523Z,99.90
2023-07-21T00:41:31.215Z,99.90
2023-07-21T00:43:57.848Z,99.90
2023-07-21T00:46:25.704Z,99.90
2023-07-21T00:48:52.832Z,99.90
2023-07-21T00:51:20.543Z,99.90
2023-07-21T00:53:48.241Z,99.90
2023-07-21T00:56:14.870Z,99.90
2023-07-21T00:58:41.492Z,99.90
2023-07-21T01:01:08.837Z,99.90
2023-07-21T01:03:36.635Z,99.90
2023-07-21T01:06:04.559Z,99.90
2023-07-21T01:08:31.520Z,99.90
2023-07-21T01:10:58.899Z,99.90
2023-07-21T01:13:27.549Z,99.90
2023-07-21T01:15:56.625Z,99.90
2023-07-21T01:18:25.674Z,99.90
2023-07-21T01:20:54.206Z,99.90
2023-07-21T01:23:20.785Z,99.90
2023-07-21T01:25:48.388Z,99.90
2023-07-21T01:28:17.491Z,99.90
2023-07-21T01:30:47.004Z,99.90
2023-07-21T01:33:15.302Z,99.90
2023-07-21T01:35:43.181Z,99.90
2023-07-21T01:38:11.439Z,99.90
2023-07-21T01:40:40.231Z,99.90
2023-07-21T01:43:08.507Z,99.90
2023-07-21T01:45:35.229Z,99.90
2023-07-21T01:48:02.004Z,99.90
2023-07-21T01:50:30.201Z,99.90
2023-07-21T01:52:59.288Z,99.90
2023-07-21T01:55:36.878Z,99.90
2023-07-21T01:58:08.861Z,99.90
2023-07-21T02:00:50.747Z,99.90
2023-07-21T02:03:19.774Z,99.90
2023-07-21T02:05:47.906Z,99.90
2023-07-21T02:08:14.994Z,99.90
2023-07-21T02:10:42.302Z,99.90
2023-07-21T02:13:10.992Z,99.90
2023-07-21T02:15:37.643Z,99.90
2023-07-21T02:18:04.484Z,99.90
2023-07-21T02:20:31.217Z,99.90
2023-07-21T02:22:57.879Z,99.90
2023-07-21T02:25:25.576Z,99.90
2023-07-21T02:27:52.224Z,99.90
2023-07-21T02:30:18.901Z,99.90
2023-07-21T02:32:45.600Z,99.90
2023-07-21T02:35:12.520Z,99.90
2023-07-21T02:37:39.172Z,99.90
2023-07-21T02:40:07.357Z,99.90
2023-07-21T02:42:35.443Z,99.90
2023-07-21T02:45:02.422Z,99.90
2023-07-21T02:47:29.141Z,99.90
2023-07-21T02:49:55.833Z,99.90
2023-07-21T02:52:22.516Z,99.90
2023-07-21T02:54:49.218Z,99.90
2023-07-21T02:57:15.917Z,99.90
2023-07-21T02:59:42.731Z,99.90
2023-07-21T03:02:09.766Z,99.90
2023-07-21T03:04:37.559Z,99.90
2023-07-21T03:07:04.693Z,99.90
2023-07-21T03:09:32.148Z,99.90
2023-07-21T03:11:58.769Z,99.90
2023-07-21T03:14:25.420Z,99.90
2023-07-21T03:16:52.286Z,99.90
2023-07-21T03:19:19.108Z,99.90
2023-07-21T03:21:45.834Z,99.90
2023-07-21T03:24:12.692Z,99.90
2023-07-21T03:26:39.330Z,99.90
2023-07-21T03:29:05.925Z,99.90
2023-07-21T03:31:33.908Z,99.90
2023-07-21T03:34:00.778Z,99.90
2023-07-21T03:36:27.549Z,99.90
2023-07-21T03:38:54.467Z,99.90
2023-07-21T03:41:22.077Z,99.90
2023-07-21T03:43:49.496Z,99.90
2023-07-21T03:46:16.173Z,99.90
2023-07-21T03:48:44.147Z,99.90
2023-07-21T03:51:11.272Z,99.90
2023-07-21T03:53:38.044Z,99.90
2023-07-21T03:56:06.595Z,99.90
2023-07-21T03:58:33.623Z,99.90
2023-07-21T04:01:00.857Z,99.90
2023-07-21T04:03:27.787Z,99.90
2023-07-21T04:05:54.697Z,99.90
2023-07-21T04:08:21.297Z,99.90
2023-07-21T04:10:47.920Z,99.90
2023-07-21T04:13:14.536Z,99.90
2023-07-21T04:15:41.199Z,99.90
2023-07-21T04:18:07.899Z,99.90
2023-07-21T04:20:34.511Z,99.90
2023-07-21T04:23:01.393Z,99.90
2023-07-21T04:25:28.043Z,99.90
2023-07-21T04:27:56.079Z,99.90
2023-07-21T04:30:23.935Z,99.90
2023-07-21T04:32:51.338Z,99.90
2023-07-21T04:35:18.462Z,99.90
2023-07-21T04:37:45.370Z,99.90
2023-07-21T04:40:12.773Z,99.90
2023-07-21T04:42:40.137Z,99.90
2023-07-21T04:45:12.820Z,99.90
2023-07-21T04:47:41.575Z,99.90
2023-07-21T04:50:09.466Z,99.90
2023-07-21T04:52:38.010Z,99.90
2023-07-21T04:55:06.647Z,99.90
2023-07-21T04:57:33.839Z,99.90
2023-07-21T05:00:00.536Z,99.90
2023-07-21T05:02:29.605Z,99.90
2023-07-21T05:04:58.584Z,99.90
2023-07-21T05:07:25.561Z,99.90
2023-07-21T05:09:52.611Z,99.90
2023-07-21T05:12:20.031Z,99.90
2023-07-21T05:14:46.641Z,99.90
2023-07-21T05:17:13.281Z,99.90
2023-07-21T05:19:40.000Z,99.90
2023-07-21T05:22:06.764Z,99.90
2023-07-21T05:24:33.497Z,99.90
2023-07-21T05:27:00.140Z,99.90
2023-07-21T05:29:26.778Z,99.90
2023-07-21T05:31:53.405Z,99.90
2023-07-21T05:34:22.224Z,99.90
2023-07-21T05:36:49.332Z,99.90
2023-07-21T05:39:16.841Z,99.90
2023-07-21T05:41:43.540Z,99.90
2023-07-21T05:44:10.276Z,99.90
2023-07-21T05:46:40.436Z,99.90
2023-07-21T05:49:07.437Z,99.90
2023-07-21T05:51:34.294Z,99.90
2023-07-21T05:54:00.989Z,99.90
2023-07-21T05:56:28.095Z,99.90
2023-07-21T05:58:55.060Z,99.90
2023-07-21T06:01:24.254Z,99.90
2023-07-21T06:03:51.013Z,99.90
2023-07-21T06:06:17.735Z,99.90
2023-07-21T06:08:44.873Z,99.90
2023-07-21T06:11:11.624Z,99.90
2023-07-21T06:13:38.281Z,99.90
2023-07-21T06:16:05.043Z,99.90
2023-07-21T06:18:33.022Z,99.90
2023-07-21T06:21:01.025Z,99.90
2023-07-21T06:23:27.676Z,99.90
2023-07-21T06:25:54.911Z,99.90
2023-07-21T06:28:22.869Z,99.90
2023-07-21T06:30:49.913Z,99.90
2023-07-21T06:33:16.933Z,99.90
2023-07-21T06:35:43.563Z,99.90
2023-07-21T06:38:10.145Z,99.90
2023-07-21T06:40:36.748Z,99.90
2023-07-21T06:43:03.552Z,99.90
2023-07-21T06:45:30.498Z,99.90
2023-07-21T06:47:57.181Z,99.90
2023-07-21T06:50:23.823Z,99.90
2023-07-21T06:52:52.583Z,99.90
2023-07-21T06:55:19.534Z,99.90
2023-07-21T06:57:46.363Z,99.90
2023-07-21T07:00:15.692Z,99.90
2023-07-21T07:02:48.326Z,99.90
2023-07-21T07:05:15.228Z,99.90
2023-07-21T07:07:41.926Z,99.90
2023-07-21T07:10:09.693Z,99.90
2023-07-21T07:12:36.361Z,99.90
2023-07-21T07:15:03.084Z,99.90
2023-07-21T07:17:29.755Z,99.90
2023-07-21T07:19:57.445Z,99.90
2023-07-21T07:22:24.130Z,99.90
2023-07-21T07:24:50.762Z,99.90
2023-07-21T07:27:17.528Z,99.90
2023-07-21T07:29:44.189Z,99.60
2023-07-21T07:32:10.886Z,98.90
2023-07-21T07:34:37.856Z,99.60
2023-07-21T07:37:04.695Z,99.00
2023-07-21T07:39:31.636Z,99.20
2023-07-21T07:41:58.322Z,98.70
2023-07-21T07:44:24.950Z,98.00
2023-07-21T07:46:56.222Z,98.20
2023-07-21T07:49:23.212Z,98.00
2023-07-21T07:51:52.614Z,98.60
2023-07-21T07:54:19.294Z,97.80
2023-07-21T07:56:48.289Z,97.60
2023-07-21T07:59:14.901Z,98.20
2023-07-21T08:01:41.562Z,97.30
2023-07-21T08:04:08.374Z,97.20
2023-07-21T08:06:35.136Z,97.00
2023-07-21T08:09:04.061Z,97.50
2023-07-21T08:11:30.730Z,97.00
2023-07-21T08:13:57.381Z,96.80
2023-07-21T08:16:24.166Z,96.10
2023-07-21T08:18:51.104Z,96.40
2023-07-21T08:21:25.210Z,96.00
2023-07-21T08:23:52.522Z,95.50
2023-07-21T08:26:19.648Z,94.90
2023-07-21T08:28:46.279Z,94.50
2023-07-21T08:31:13.223Z,93.80
2023-07-21T08:33:40.772Z,93.60
2023-07-21T08:36:07.444Z,93.70
2023-07-21T08:38:37.007Z,94.10
2023-07-21T08:41:04.975Z,93.30
2023-07-21T08:43:32.076Z,92.80
2023-07-21T08:46:02.189Z,93.30
2023-07-21T08:48:29.722Z,91.80
2023-07-21T08:50:57.220Z,90.90
2023-07-21T08:53:26.014Z,91.60
2023-07-21T08:56:00.229Z,87.40
2023-07-21T08:58:28.023Z,87.70
2023-07-21T09:00:56.045Z,89.90
2023-07-21T09:03:33.964Z,89.40
2023-07-21T09:06:02.344Z,90.70
2023-07-21T09:08:33.739Z,88.50
2023-07-21T09:11:04.716Z,87.20
2023-07-21T09:13:33.180Z,88.30
2023-07-21T09:16:02.829Z,86.20
2023-07-21T09:18:50.057Z,88.50
2023-07-21T09:21:24.378Z,84.30
2023-07-21T09:23:52.698Z,86.50
2023-07-21T09:26:24.155Z,83.60
2023-07-21T09:28:51.396Z,82.30
2023-07-21T09:31:18.070Z,84.20
2023-07-21T09:33:47.570Z,85.80
2023-07-21T09:36:16.727Z,85.70
2023-07-21T09:38:44.717Z,87.10
2023-07-21T09:41:13.661Z,88.70
2023-07-21T09:43:41.618Z,89.70
2023-07-21T09:46:17.764Z,86.80
2023-07-21T09:48:45.925Z,89.40
2023-07-21T09:51:12.954Z,89.40
2023-07-21T09:53:42.607Z,90.20
2023-07-21T09:56:10.912Z,87.00
2023-07-21T09:58:52.040Z,85.20
2023-07-21T10:01:19.811Z,79.30
2023-07-21T10:03:47.667Z,79.80
2023-07-21T10:06:16.237Z,76.90
2023-07-21T10:08:43.564Z,76.00
2023-07-21T10:11:10.635Z,77.40
2023-07-21T10:13:48.640Z,78.00
2023-07-21T10:16:16.154Z,76.30
2023-07-21T10:19:02.202Z,79.20
2023-07-21T10:21:35.295Z,74.10
2023-07-21T10:24:03.904Z,74.70
2023-07-21T10:26:31.422Z,74.30
2023-07-21T10:29:16.429Z,74.00
2023-07-21T10:31:59.109Z,70.70
2023-07-21T10:34:33.390Z,71.40
2023-07-21T10:37:04.333Z,70.20
2023-07-21T10:39:33.547Z,64.60
2023-07-21T10:42:02.253Z,65.10
2023-07-21T10:44:40.420Z,64.60
2023-07-21T10:47:13.674Z,64.70
2023-07-21T10:49:40.553Z,66.70
2023-07-21T10:52:07.645Z,68.60
2023-07-21T10:54:35.700Z,66.20
2023-07-21T10:57:03.102Z,63.20
2023-07-21T10:59:34.216Z,66.30
2023-07-21T11:02:01.753Z,64.40
2023-07-21T11:04:28.576Z,64.40
2023-07-21T11:06:57.700Z,66.10
2023-07-21T11:09:25.091Z,67.30
2023-07-21T11:11:53.806Z,68.40
2023-07-21T11:14:22.243Z,65.00
2023-07-21T11:16:56.358Z,65.40
2023-07-21T11:19:25.309Z,64.40
2023-07-21T11:21:53.866Z,66.90
2023-07-21T11:24:27.120Z,65.20
2023-07-21T11:27:10.059Z,64.30
2023-07-21T11:29:42.411Z,67.60
2023-07-21T11:32:25.454Z,68.00
2023-07-21T11:35:00.014Z,69.60
2023-07-21T11:37:43.854Z,65.60
2023-07-21T11:40:17.096Z,66.30
2023-07-21T11:42:50.630Z,67.80
2023-07-21T11:45:36.959Z,66.00
2023-07-21T11:48:15.203Z,68.10
2023-07-21T11:50:55.756Z,70.60
2023-07-21T11:53:24.479Z,70.40
2023-07-21T11:55:51.687Z,72.90
2023-07-21T11:58:18.446Z,71.70
2023-07-21T12:00:45.257Z,72.00
2023-07-21T12:03:12.236Z,72.00
2023-07-21T12:05:39.573Z,72.00
2023-07-21T12:08:07.285Z,74.40
2023-07-21T12:10:34.159Z,71.20
2023-07-21T12:13:00.806Z,72.20
2023-07-21T12:15:30.570Z,72.80
2023-07-21T12:17:57.420Z,72.80
2023-07-21T12:20:24.232Z,71.90
2023-07-21T12:22:50.898Z,71.20
2023-07-21T12:25:17.990Z,69.70
2023-07-21T12:27:45.283Z,68.40
2023-07-21T12:30:12.259Z,64.10
2023-07-21T12:32:39.344Z,66.50
2023-07-21T12:35:06.847Z,66.70
2023-07-21T12:37:33.908Z,67.90
2023-07-21T12:40:01.291Z,68.90
2023-07-21T12:42:30.063Z,69.10
2023-07-21T12:44:56.675Z,70.30
2023-07-21T12:47:23.468Z,68.30
2023-07-21T12:49:50.216Z,68.80
2023-07-21T12:52:16.900Z,68.60
2023-07-21T12:54:45.982Z,68.70
2023-07-21T12:57:13.816Z,67.60
2023-07-21T12:59:40.487Z,64.40
2023-07-21T13:02:07.675Z,63.40
2023-07-21T13:04:34.682Z,62.50
2023-07-21T13:07:08.590Z,61.60
2023-07-21T13:09:35.606Z,61.50
2023-07-21T13:12:02.235Z,63.30
2023-07-21T13:14:29.169Z,65.10
2023-07-21T13:16:55.934Z,65.20
2023-07-21T13:19:22.796Z,66.60
2023-07-21T13:21:49.432Z,66.40
2023-07-21T13:24:16.095Z,66.60
2023-07-21T13:26:42.854Z,68.30
2023-07-21T13:29:11.568Z,67.90
2023-07-21T13:31:38.629Z,69.30
2023-07-21T13:34:05.310Z,68.70
2023-07-21T13:36:32.872Z,68.10
2023-07-21T13:38:59.503Z,69.40
2023-07-21T13:41:26.236Z,70.10
2023-07-21T13:43:52.928Z,74.70
2023-07-21T13:46:23.105Z,82.50
2023-07-21T13:48:50.215Z,84.50
2023-07-21T13:51:17.005Z,90.40
2023-07-21T13:53:43.682Z,93.30
2023-07-21T13:56:10.320Z,94.70
2023-07-21T13:58:36.948Z,97.70
2023-07-21T14:01:04.399Z,99.90
2023-07-21T14:03:31.225Z,99.90
2023-07-21T14:05:58.112Z,99.90
2023-07-21T14:08:25.574Z,99.90
2023-07-21T14:10:52.640Z,99.90
2023-07-21T14:13:19.347Z,99.90
2023-07-21T14:15:46.365Z,99.90
2023-07-21T14:18:13.747Z,99.90
2023-07-21T14:20:40.929Z,99.90
2023-07-21T14:23:08.510Z,99.90
2023-07-21T14:25:35.346Z,99.90
2023-07-21T14:28:01.996Z,99.90
2023-07-21T14:30:30.748Z,99.90
2023-07-21T14:32:57.742Z,99.90
2023-07-21T14:35:24.571Z,99.90
2023-07-21T14:37:51.477Z,99.90
2023-07-21T14:40:18.650Z,99.90
2023-07-21T14:42:45.719Z,99.90
2023-07-21T14:45:13.677Z,99.90
2023-07-21T14:47:40.529Z,99.90
2023-07-21T14:50:08.125Z,99.90
2023-07-21T14:52:35.059Z,99.90
2023-07-21T14:55:06.324Z,99.90
2023-07-21T14:57:33.226Z,99.90
2023-07-21T14:59:59.888Z,99.90
2023-07-21T15:02:26.628Z,99.90
2023-07-21T15:04:53.294Z,99.90
2023-07-21T15:07:19.933Z,99.90
2023-07-21T15:09:47.745Z,99.90
2023-07-21T15:12:14.676Z,99.90
2023-07-21T15:14:41.288Z,99.90
2023-07-21T15:17:08.064Z,99.90
2023-07-21T15:19:34.699Z,99.90
2023-07-21T15:22:01.354Z,99.70
2023-07-21T15:24:28.006Z,99.00
2023-07-21T15:26:54.735Z,99.30
2023-07-21T15:29:21.536Z,98.60
2023-07-21T15:31:52.489Z,98.10
2023-07-21T15:34:19.199Z,99.00
2023-07-21T15:36:45.881Z,98.20
2023-07-21T15:39:12.800Z,97.70
2023-07-21T15:41:39.431Z,99.10
2023-07-21T15:44:06.041Z,98.30
2023-07-21T15:46:32.705Z,98.10
2023-07-21T15:48:59.335Z,97.90
2023-07-21T15:51:26.006Z,98.20
2023-07-21T15:54:03.021Z,98.30
2023-07-21T15:56:38.112Z,97.40
2023-07-21T15:59:04.707Z,98.30
2023-07-21T16:01:32.182Z,97.90
2023-07-21T16:03:58.837Z,98.10
2023-07-21T16:06:25.493Z,97.40
2023-07-21T16:08:52.310Z,96.90
2023-07-21T16:11:19.685Z,97.10
2023-07-21T16:13:47.980Z,97.10
2023-07-21T16:16:14.686Z,97.40
2023-07-21T16:18:51.023Z,97.30
2023-07-21T16:21:18.386Z,97.90
2023-07-21T16:23:45.102Z,97.80
2023-07-21T16:26:16.308Z,98.00
2023-07-21T16:28:43.085Z,98.50
2023-07-21T16:31:09.871Z,98.70
2023-07-21T16:33:36.891Z,98.10
2023-07-21T16:36:04.698Z,98.00
2023-07-21T16:38:32.343Z,98.00
2023-07-21T16:41:04.919Z,97.60
2023-07-21T16:43:31.610Z,97.40
2023-07-21T16:45:58.441Z,97.40
2023-07-21T16:48:27.244Z,97.40
2023-07-21T16:50:54.174Z,97.20
2023-07-21T16:53:23.766Z,97.70
2023-07-21T16:55:50.760Z,97.10
2023-07-21T16:58:19.248Z,97.80
2023-07-21T17:00:46.662Z,97.40
2023-07-21T17:03:17.067Z,97.10
2023-07-21T17:05:43.713Z,97.60
2023-07-21T17:08:10.432Z,97.00
2023-07-21T17:10:37.364Z,97.10
2023-07-21T17:13:05.055Z,96.50
2023-07-21T17:15:32.196Z,96.30
2023-07-21T17:18:00.474Z,96.10
2023-07-21T17:20:27.220Z,96.00
2023-07-21T17:22:53.851Z,95.70
2023-07-21T17:25:20.607Z,95.60
2023-07-21T17:27:47.489Z,95.70
2023-07-21T17:30:14.268Z,96.00
2023-07-21T17:32:40.894Z,95.80
2023-07-21T17:35:08.603Z,95.60
2023-07-21T17:37:35.439Z,96.00
2023-07-21T17:40:02.297Z,95.90
2023-07-21T17:42:29.462Z,95.40
2023-07-21T17:44:56.049Z,95.50
2023-07-21T17:47:22.973Z,95.40
2023-07-21T17:49:49.573Z,95.30
2023-07-21T17:52:16.213Z,95.10
2023-07-21T17:54:42.844Z,94.80
2023-07-21T17:57:10.052Z,94.80
2023-07-21T17:59:36.710Z,95.20
2023-07-21T18:02:03.566Z,95.20
2023-07-21T18:04:30.210Z,95.20
2023-07-21T18:06:56.814Z,95.20
2023-07-21T18:09:25.892Z,95.20
2023-07-21T18:11:55.294Z,95.40
2023-07-21T18:14:23.024Z,95.30
2023-07-21T18:16:49.837Z,95.80
2023-07-21T18:19:16.669Z,95.90
2023-07-21T18:21:43.391Z,95.70
2023-07-21T18:24:10.174Z,95.60
2023-07-21T18:26:36.850Z,95.30
2023-07-21T18:29:03.565Z,95.80
2023-07-21T18:31:30.459Z,95.80
2023-07-21T18:33:57.363Z,96.00
2023-07-21T18:36:24.018Z,95.80
2023-07-21T18:38:51.336Z,96.30
2023-07-21T18:41:22.252Z,96.40
2023-07-21T18:43:51.411Z,96.80
2023-07-21T18:46:18.367Z,97.00
2023-07-21T18:48:45.039Z,97.30
2023-07-21T18:51:11.731Z,96.70
2023-07-21T18:53:43.038Z,97.10
2023-07-21T18:56:09.994Z,97.80
2023-07-21T18:58:36.750Z,97.70
2023-07-21T19:01:03.459Z,97.90
2023-07-21T19:03:30.176Z,97.90
2023-07-21T19:05:56.825Z,98.20
2023-07-21T19:08:23.430Z,98.50
2023-07-21T19:10:51.775Z,98.60
2023-07-21T19:13:18.540Z,99.00
2023-07-21T19:15:45.179Z,99.10
2023-07-21T19:18:11.910Z,98.80
2023-07-21T19:20:38.614Z,99.00
2023-07-21T19:23:05.241Z,99.60
2023-07-21T19:25:31.892Z,99.60
2023-07-21T19:27:58.585Z,99.80
2023-07-21T19:30:25.184Z,99.90
2023-07-21T19:32:51.790Z,99.90
2023-07-21T19:35:18.564Z,99.90
2023-07-21T19:37:45.169Z,99.90
2023-07-21T19:40:12.099Z,99.90
2023-07-21T19:42:38.782Z,99.90
2023-07-21T19:45:07.561Z,99.90
2023-07-21T19:47:34.274Z,99.90
2023-07-21T19:50:01.154Z,99.90
2023-07-21T19:52:27.823Z,99.90
2023-07-21T19:54:54.420Z,99.90
2023-07-21T19:57:22.267Z,99.90
2023-07-21T19:59:49.091Z,99.90
2023-07-21T20:02:15.882Z,99.90
2023-07-21T20:04:42.557Z,99.90
2023-07-21T20:07:09.308Z,99.90
2023-07-21T20:09:35.926Z,98.60
2023-07-21T20:12:02.563Z,97.70
2023-07-21T20:14:29.168Z,97.50
2023-07-21T20:16:55.978Z,97.40
2023-07-21T20:19:22.640Z,97.00
2023-07-21T20:21:49.565Z,96.00
2023-07-21T20:24:16.205Z,96.20
2023-07-21T20:26:43.032Z,96.20
2023-07-21T20:29:09.757Z,95.80
2023-07-21T20:31:36.400Z,95.30
2023-07-21T20:34:05.421Z,95.70
2023-07-21T20:36:32.142Z,95.70
2023-07-21T20:38:58.867Z,95.70
2023-07-21T20:41:25.497Z,95.30
2023-07-21T20:43:52.133Z,95.30
2023-07-21T20:46:18.832Z,95.30
2023-07-21T20:48:45.483Z,95.40
2023-07-21T20:51:12.124Z,95.50
2023-07-21T20:53:38.782Z,96.00
2023-07-21T20:56:05.773Z,96.30
2023-07-21T20:58:33.674Z,96.40
2023-07-21T21:01:00.435Z,95.50
2023-07-21T21:03:27.201Z,95.90
2023-07-21T21:06:00.906Z,96.00
2023-07-21T21:08:28.292Z,96.20
2023-07-21T21:10:55.050Z,96.10
2023-07-21T21:13:22.801Z,95.90
2023-07-21T21:15:49.921Z,95.90
2023-07-21T21:18:16.734Z,96.10
2023-07-21T21:20:45.790Z,95.70
2023-07-21T21:23:13.396Z,96.10
2023-07-21T21:25:40.163Z,96.60
2023-07-21T21:28:08.259Z,96.00
2023-07-21T21:30:34.917Z,97.00
2023-07-21T21:33:01.702Z,96.60
2023-07-21T21:35:28.395Z,97.10
2023-07-21T21:37:55.028Z,96.80
2023-07-21T21:40:21.644Z,97.00
2023-07-21T21:42:48.330Z,97.20
2023-07-21T21:45:14.959Z,97.40
2023-07-21T21:47:41.584Z,98.30
2023-07-21T21:50:08.494Z,99.30
2023-07-21T21:52:35.161Z,98.50
2023-07-21T21:55:01.836Z,99.50
2023-07-21T21:57:28.799Z,98.10
2023-07-21T21:59:55.480Z,98.10
2023-07-21T22:02:22.146Z,97.80
2023-07-21T22:04:49.114Z,98.70
2023-07-21T22:07:16.092Z,98.20
2023-07-21T22:09:42.733Z,98.70
2023-07-21T22:12:12.352Z,98.50
2023-07-21T22:14:54.550Z,98.70
2023-07-21T22:17:23.446Z,98.30
2023-07-21T22:20:03.564Z,98.10
2023-07-21T22:22:37.168Z,97.80
2023-07-21T22:25:04.171Z,98.90
2023-07-21T22:27:30.814Z,97.50
2023-07-21T22:29:57.462Z,98.00
2023-07-21T22:32:24.388Z,98.10
2023-07-21T22:34:51.227Z,99.40
2023-07-21T22:37:17.947Z,99.90
2023-07-21T22:39:44.566Z,99.20
2023-07-21T22:42:11.174Z,98.00
2023-07-21T22:44:37.884Z,99.50
2023-07-21T22:47:04.794Z,99.30
2023-07-21T22:49:31.450Z,99.90
2023-07-21T22:51:58.061Z,99.20
2023-07-21T22:54:24.649Z,99.60
2023-07-21T22:56:51.765Z,99.10
2023-07-21T22:59:18.413Z,98.00
2023-07-21T23:01:45.107Z,97.90
2023-07-21T23:04:11.786Z,98.00
2023-07-21T23:06:40.470Z,98.60
2023-07-21T23:09:07.120Z,99.20
2023-07-21T23:11:33.764Z,99.20
2023-07-21T23:14:00.805Z,98.90
2023-07-21T23:16:27.805Z,99.20
2023-07-21T23:18:54.629Z,98.80
2023-07-21T23:21:21.270Z,98.60
2023-07-21T23:23:47.903Z,98.60
2023-07-21T23:26:14.487Z,98.70
2023-07-21T23:28:41.197Z,99.40
2023-07-21T23:31:09.148Z,99.00
2023-07-21T23:33:35.894Z,99.00
2023-07-21T23:36:02.623Z,98.80
2023-07-21T23:38:30.176Z,99.30
2023-07-21T23:40:57.066Z,99.10
2023-07-21T23:43:25.009Z,99.10
2023-07-21T23:45:57.762Z,99.40
2023-07-21T23:48:25.969Z,99.30
2023-07-21T23:50:52.609Z,99.80
2023-07-21T23:53:19.202Z,99.90
2023-07-21T23:55:46.257Z,99.90
2023-07-21T23:58:12.928Z,99.90
